Schneifelwetter: Wetterstation Hallschlag, 537 m . NN
Wetterdaten: Mittwoch, 03.03.2010
Datum Zeit Temp. A. Feuchte A. Luftdruck Regen Wind Richtung Richtung Sonnenschein Helligkeit T Regen Taupunkt Windchill
03.03.2010 00:01 -5,0 C 89 % 1022 hPa 0,0 l/m 0,0 km/h (0 Bft) N-NW 330 0 min 0 lux 0,00 min -6,5 C -5,0 C
03.03.2010 00:16 -5,0 C 90 % 1022 hPa 0,0 l/m 0,0 km/h (0 Bft) N-NW 330 0 min 0 lux 0,00 min -6,4 C -5,0 C
03.03.2010 00:31 -5,6 C 89 % 1022 hPa 0,0 l/m 0,0 km/h (0 Bft) N-NW 330 0 min 0 lux 0,00 min -7,1 C -5,6 C
03.03.2010 00:46 -5,7 C 90 % 1022 hPa 0,0 l/m 0,0 km/h (0 Bft) N-NW 330 0 min 0 lux 0,00 min -7,1 C -5,7 C
03.03.2010 01:01 -5,6 C 91 % 1022 hPa 0,0 l/m 3,3 km/h (1 Bft) N-NW 330 0 min 0 lux 0,00 min -6,8 C -5,6 C
03.03.2010 01:16 -6,0 C 91 % 1021 hPa 0,0 l/m 3,6 km/h (1 Bft) N-NW 330 0 min 0 lux 0,00 min -7,2 C -6,0 C
03.03.2010 01:31 -6,3 C 91 % 1022 hPa 0,0 l/m 0,0 km/h (0 Bft) N-NW 330 0 min 0 lux 0,00 min -7,5 C -6,3 C
03.03.2010 01:46 -6,6 C 91 % 1021 hPa 0,0 l/m 0,0 km/h (0 Bft) N-NW 330 0 min 0 lux 0,00 min -7,8 C -6,6 C
03.03.2010 02:01 -6,6 C 92 % 1022 hPa 0,0 l/m 0,7 km/h (0 Bft) N-NW 330 0 min 0 lux 0,00 min -7,7 C -6,6 C
03.03.2010 02:16 -6,5 C 92 % 1022 hPa 0,0 l/m 0,0 km/h (0 Bft) N-NW 330 0 min 0 lux 0,00 min -7,6 C -6,5 C
03.03.2010 02:31 -6,7 C 93 % 1021 hPa 0,0 l/m 0,0 km/h (0 Bft) N-NW 330 0 min 0 lux 0,00 min -7,6 C -6,7 C
03.03.2010 02:46 -6,8 C 93 % 1021 hPa 0,0 l/m 0,0 km/h (0 Bft) N-NW 330 0 min 0 lux 0,00 min -7,7 C -6,8 C
03.03.2010 03:01 -6,6 C 94 % 1021 hPa 0,0 l/m 0,7 km/h (0 Bft) N-NW 330 0 min 0 lux 0,00 min -7,4 C -6,6 C
03.03.2010 03:16 -5,8 C 94 % 1021 hPa 0,0 l/m 0,0 km/h (0 Bft) N-NW 330 0 min 0 lux 0,00 min -6,6 C -5,8 C
03.03.2010 03:31 -6,0 C 94 % 1021 hPa 0,0 l/m 4,6 km/h (1 Bft) N-NW 330 0 min 0 lux 0,00 min -6,8 C -6,0 C
03.03.2010 03:46 -5,9 C 94 % 1021 hPa 0,0 l/m 4,1 km/h (1 Bft) N-NW 330 0 min 0 lux 0,00 min -6,7 C -5,9 C
03.03.2010 04:01 -6,2 C 94 % 1021 hPa 0,0 l/m 2,8 km/h (1 Bft) N-NW 330 0 min 0 lux 0,00 min -7,0 C -6,2 C
03.03.2010 04:16 -6,7 C 93 % 1021 hPa 0,0 l/m 0,0 km/h (0 Bft) N-NW 330 0 min 0 lux 0,00 min -7,6 C -6,7 C
03.03.2010 04:31 -7,4 C 93 % 1020 hPa 0,0 l/m 0,0 km/h (0 Bft) N-NW 330 0 min 0 lux 0,00 min -8,3 C -7,4 C
03.03.2010 04:46 -7,7 C 94 % 1021 hPa 0,0 l/m 0,0 km/h (0 Bft) N-NW 330 0 min 0 lux 0,00 min -8,5 C -7,7 C
03.03.2010 05:01 -7,6 C 94 % 1021 hPa 0,0 l/m 0,0 km/h (0 Bft) N-NW 330 0 min 0 lux 0,00 min -8,4 C -7,6 C
03.03.2010 05:16 -7,8 C 94 % 1021 hPa 0,0 l/m 0,0 km/h (0 Bft) N-NW 330 0 min 0 lux 0,00 min -8,6 C -7,8 C
03.03.2010 05:31 -8,1 C 94 % 1020 hPa 0,0 l/m 0,0 km/h (0 Bft) N-NW 330 0 min 0 lux 0,00 min -8,9 C -8,1 C
03.03.2010 05:46 -8,4 C 93 % 1020 hPa 0,0 l/m 0,0 km/h (0 Bft) N-NW 330 0 min 0 lux 0,00 min -9,3 C -8,4 C
03.03.2010 06:01 -8,6 C 94 % 1020 hPa 0,0 l/m 0,0 km/h (0 Bft) N-NW 330 0 min 0 lux 0,00 min -9,4 C -8,6 C
03.03.2010 06:16 -8,1 C 95 % 1020 hPa 0,0 l/m 0,0 km/h (0 Bft) N-NW 330 0 min 0 lux 0,00 min -8,8 C -8,1 C
03.03.2010 06:31 -7,5 C 96 % 1020 hPa 0,0 l/m 5,3 km/h (1 Bft) N-NO22.5 15 0 min 0 lux 0,00 min -8,0 C -7,5 C
03.03.2010 06:46 -6,4 C 96 % 1020 hPa 0,0 l/m 8,5 km/h (2 Bft) O-NO22.5 65 0 min 0 lux 0,00 min -6,9 C -8,9 C
03.03.2010 07:00 -5,5 C 97 % 1020 hPa 0,0 l/m 7,6 km/h (2 Bft) NO 55 0 min 52 lux 0,00 min -5,9 C -7,0 C
03.03.2010 07:15 -4,6 C 97 % 1020 hPa 0,0 l/m 10,6 km/h (2 Bft) NO22.5 55 0 min 286 lux 0,00 min -5,0 C -9,1 C
03.03.2010 07:30 -4,1 C 97 % 1019 hPa 0,0 l/m 13,0 km/h (3 Bft) O-NO22.5 60 0 min 1,22 klux 0,00 min -4,5 C -10,5 C
03.03.2010 07:45 -3,9 C 97 % 1019 hPa 0,0 l/m 14,5 km/h (3 Bft) O-NO45 60 0 min 1,73 klux 0,00 min -4,3 C -11,4 C
03.03.2010 08:00 -3,8 C 97 % 1019 hPa 0,0 l/m 15,0 km/h (3 Bft) O-NO22.5 65 0 min 4,17 klux 0,00 min -4,2 C -11,6 C
03.03.2010 08:15 -3,4 C 97 % 1020 hPa 0,0 l/m 13,3 km/h (3 Bft) O-NO22.5 65 0 min 8,74 klux 0,00 min -3,8 C -9,9 C
03.03.2010 08:31 -3,3 C 96 % 1020 hPa 0,0 l/m 18,1 km/h (3 Bft) NO45 55 0 min 10,3 klux 0,00 min -3,8 C -12,9 C
03.03.2010 08:46 -3,0 C 96 % 1020 hPa 0,0 l/m 18,0 km/h (3 Bft) O-NO45 70 0 min 25,7 klux 0,00 min -3,5 C -12,4 C
03.03.2010 09:01 -2,6 C 95 % 1020 hPa 0,0 l/m 17,6 km/h (3 Bft) O-NO45 65 15 min 32,0 klux 0,00 min -3,3 C -11,7 C
03.03.2010 09:16 -2,2 C 95 % 1019 hPa 0,0 l/m 16,9 km/h (3 Bft) O-NO22.5 65 15 min 38,4 klux 0,00 min -2,9 C -10,8 C
03.03.2010 09:30 -1,9 C 94 % 1019 hPa 0,0 l/m 18,0 km/h (3 Bft) O-NO22.5 60 14 min 41,6 klux 0,00 min -2,7 C -11,0 C
03.03.2010 09:45 -1,6 C 92 % 1019 hPa 0,0 l/m 19,3 km/h (3 Bft) O-NO45 70 15 min 42,8 klux 0,00 min -2,7 C -11,4 C
03.03.2010 10:00 -1,2 C 90 % 1019 hPa 0,0 l/m 22,5 km/h (4 Bft) O22.5 80 15 min 48,8 klux 0,00 min -2,6 C -12,3 C
03.03.2010 10:16 -0,8 C 90 % 1019 hPa 0,0 l/m 24,2 km/h (4 Bft) O-NO45 65 16 min 63,7 klux 0,00 min -2,2 C -12,5 C
03.03.2010 10:31 -0,8 C 87 % 1019 hPa 0,0 l/m 25,1 km/h (4 Bft) O-NO22.5 60 15 min 57,7 klux 0,00 min -2,7 C -12,8 C
03.03.2010 10:46 -0,8 C 86 % 1019 hPa 0,0 l/m 26,2 km/h (4 Bft) O-NO45 70 15 min 57,6 klux 0,00 min -2,8 C -13,3 C
03.03.2010 11:01 -0,8 C 87 % 1019 hPa 0,0 l/m 25,5 km/h (4 Bft) O-NO22.5 60 15 min 58,6 klux 0,00 min -2,7 C -13,0 C
03.03.2010 11:15 -0,6 C 87 % 1019 hPa 0,0 l/m 22,8 km/h (4 Bft) O-NO45 60 14 min 58,4 klux 0,00 min -2,5 C -11,7 C
03.03.2010 11:30 -0,2 C 86 % 1019 hPa 0,0 l/m 19,1 km/h (3 Bft) O-NO22.5 65 15 min 59,4 klux 0,00 min -2,3 C -9,5 C
03.03.2010 11:45 0,4 C 85 % 1018 hPa 0,0 l/m 18,5 km/h (3 Bft) O45 80 15 min 58,2 klux 0,00 min -1,8 C -8,4 C
03.03.2010 12:01 0,7 C 80 % 1018 hPa 0,0 l/m 19,8 km/h (3 Bft) O-NO22.5 65 16 min 66,5 klux 0,00 min -2,3 C -8,6 C
03.03.2010 12:16 1,2 C 80 % 1018 hPa 0,0 l/m 19,6 km/h (3 Bft) O-NO22.5 75 15 min 60,1 klux 0,00 min -1,9 C -7,9 C
03.03.2010 12:31 1,5 C 77 % 1018 hPa 0,0 l/m 17,3 km/h (3 Bft) O67.5 90 15 min 60,6 klux 0,00 min -2,1 C -6,4 C
03.03.2010 12:46 1,9 C 75 % 1018 hPa 0,0 l/m 21,6 km/h (4 Bft) O45 90 15 min 61,0 klux 0,00 min -2,1 C -7,9 C
03.03.2010 13:00 2,4 C 72 % 1017 hPa 0,0 l/m 19,0 km/h (3 Bft) O45 85 14 min 62,4 klux 0,00 min -2,1 C -6,1 C
03.03.2010 13:15 2,7 C 67 % 1017 hPa 0,0 l/m 21,1 km/h (4 Bft) NO22.5 45 15 min 60,6 klux 0,00 min -2,8 C -6,6 C
03.03.2010 13:30 2,8 C 60 % 1017 hPa 0,0 l/m 28,2 km/h (4 Bft) O-NO22.5 60 15 min 61,2 klux 0,00 min -4,2 C -8,9 C
03.03.2010 13:46 3,0 C 54 % 1017 hPa 0,0 l/m 25,8 km/h (4 Bft) O-NO22.5 65 16 min 60,3 klux 0,00 min -5,4 C -7,9 C
03.03.2010 14:01 3,1 C 55 % 1016 hPa 0,0 l/m 29,7 km/h (5 Bft) NO22.5 55 15 min 57,5 klux 0,00 min -5,0 C -9,0 C
03.03.2010 14:16 3,3 C 56 % 1016 hPa 0,0 l/m 20,0 km/h (4 Bft) O67.5 100 15 min 55,5 klux 0,00 min -4,6 C -5,4 C
03.03.2010 14:30 3,5 C 51 % 1016 hPa 0,0 l/m 28,5 km/h (4 Bft) NO22.5 55 14 min 56,4 klux 0,00 min -5,7 C -8,1 C
03.03.2010 14:45 3,3 C 45 % 1016 hPa 0,0 l/m 31,1 km/h (5 Bft) O-NO45 60 15 min 47,8 klux 0,00 min -7,5 C -9,1 C
03.03.2010 15:00 3,2 C 48 % 1016 hPa 0,0 l/m 26,8 km/h (4 Bft) O67.5 100 15 min 49,6 klux 0,00 min -6,7 C -8,0 C
03.03.2010 15:15 3,2 C 50 % 1016 hPa 0,0 l/m 29,3 km/h (5 Bft) O-NO45 60 15 min 40,8 klux 0,00 min -6,2 C -8,7 C
03.03.2010 15:31 3,2 C 50 % 1016 hPa 0,0 l/m 32,8 km/h (5 Bft) O-NO45 60 16 min 39,0 klux 0,00 min -6,2 C -9,6 C
03.03.2010 15:46 3,1 C 52 % 1016 hPa 0,0 l/m 26,8 km/h (4 Bft) O-NO22.5 65 0 min 24,3 klux 0,00 min -5,8 C -8,1 C
03.03.2010 16:01 3,0 C 51 % 1016 hPa 0,0 l/m 33,3 km/h (5 Bft) O-NO45 65 15 min 30,6 klux 0,00 min -6,1 C -10,0 C
03.03.2010 16:15 3,0 C 54 % 1016 hPa 0,0 l/m 23,0 km/h (4 Bft) O45 80 0 min 23,7 klux 0,00 min -5,4 C -6,9 C
03.03.2010 16:30 3,1 C 54 % 1016 hPa 0,0 l/m 26,4 km/h (4 Bft) NO45 55 0 min 23,2 klux 0,00 min -5,3 C -8,0 C
03.03.2010 16:45 2,9 C 56 % 1015 hPa 0,0 l/m 25,0 km/h (4 Bft) NO45 50 0 min 12,1 klux 0,00 min -5,0 C -7,8 C
03.03.2010 17:01 2,7 C 57 % 1015 hPa 0,0 l/m 26,7 km/h (4 Bft) O-NO45 60 0 min 9,3 klux 0,00 min -4,9 C -8,6 C
03.03.2010 17:16 2,5 C 59 % 1015 hPa 0,0 l/m 24,0 km/h (4 Bft) NO45 50 0 min 8,69 klux 0,00 min -4,7 C -8,0 C
03.03.2010 17:31 2,1 C 62 % 1015 hPa 0,0 l/m 21,4 km/h (4 Bft) NO45 45 0 min 5,41 klux 0,00 min -4,4 C -7,5 C
03.03.2010 17:46 1,9 C 63 % 1015 hPa 0,0 l/m 23,6 km/h (4 Bft) NO22.5 35 0 min 3,16 klux 0,00 min -4,4 C -8,6 C
03.03.2010 18:00 1,6 C 65 % 1015 hPa 0,0 l/m 24,3 km/h (4 Bft) N-NO22.5 30 0 min 2,01 klux 0,00 min -4,3 C -9,3 C
03.03.2010 18:15 1,2 C 66 % 1015 hPa 0,0 l/m 27,1 km/h (4 Bft) N-NO22.5 25 0 min 944 lux 0,00 min -4,4 C -10,8 C
03.03.2010 18:30 1,1 C 67 % 1014 hPa 0,0 l/m 21,1 km/h (4 Bft) N-NO22.5 30 0 min 287 lux 0,00 min -4,3 C -8,7 C
03.03.2010 18:46 0,9 C 70 % 1014 hPa 0,0 l/m 24,7 km/h (4 Bft) N-NO22.5 25 0 min 64 lux 0,00 min -3,9 C -10,4 C
03.03.2010 19:01 0,6 C 71 % 1014 hPa 0,0 l/m 26,9 km/h (4 Bft) NO45 35 0 min 16 lux 0,00 min -4,0 C -11,6 C
03.03.2010 19:16 0,4 C 73 % 1014 hPa 0,0 l/m 21,9 km/h (4 Bft) NO22.5 35 0 min 4 lux 0,00 min -3,9 C -10,0 C
03.03.2010 19:30 0,4 C 72 % 1014 hPa 0,0 l/m 25,3 km/h (4 Bft) N-NO22.5 30 0 min 0 lux 0,00 min -4,0 C -11,3 C
03.03.2010 19:45 0,4 C 71 % 1014 hPa 0,0 l/m 28,3 km/h (4 Bft) NO45 35 0 min 0 lux 0,00 min -4,2 C -12,3 C
03.03.2010 20:00 0,3 C 70 % 1014 hPa 0,0 l/m 22,8 km/h (4 Bft) NO22.5 50 0 min 0 lux 0,00 min -4,5 C -10,5 C
03.03.2010 20:15 0,2 C 68 % 1014 hPa 0,0 l/m 27,7 km/h (4 Bft) NO22.5 45 0 min 0 lux 0,00 min -5,0 C -12,4 C
03.03.2010 20:31 -0,2 C 69 % 1014 hPa 0,0 l/m 23,4 km/h (4 Bft) NO22.5 45 0 min 0 lux 0,00 min -5,2 C -11,4 C
03.03.2010 20:46 -0,4 C 71 % 1014 hPa 0,0 l/m 28,6 km/h (4 Bft) NO22.5 35 0 min 0 lux 0,00 min -5,0 C -13,5 C
03.03.2010 21:01 -0,6 C 73 % 1014 hPa 0,0 l/m 25,3 km/h (4 Bft) NO22.5 35 0 min 0 lux 0,00 min -4,8 C -12,6 C
03.03.2010 21:15 -0,6 C 75 % 1014 hPa 0,0 l/m 31,5 km/h (5 Bft) N-NO22.5 30 0 min 0 lux 0,00 min -4,5 C -14,7 C
03.03.2010 21:30 -0,8 C 77 % 1014 hPa 0,0 l/m 29,3 km/h (5 Bft) N-NO22.5 30 0 min 0 lux 0,00 min -4,3 C -14,3 C
03.03.2010 21:45 -0,9 C 77 % 1014 hPa 0,0 l/m 30,0 km/h (5 Bft) NO22.5 35 0 min 0 lux 0,00 min -4,4 C -14,7 C
03.03.2010 22:01 -1,0 C 77 % 1014 hPa 0,0 l/m 26,1 km/h (4 Bft) NO22.5 40 0 min 0 lux 0,00 min -4,5 C -13,5 C
03.03.2010 22:16 -1,0 C 77 % 1014 hPa 0,0 l/m 29,7 km/h (5 Bft) O-NO22.5 60 0 min 0 lux 0,00 min -4,5 C -14,7 C
03.03.2010 22:31 -1,1 C 77 % 1014 hPa 0,0 l/m 30,1 km/h (5 Bft) O-NO22.5 65 0 min 0 lux 0,00 min -4,6 C -15,0 C
03.03.2010 22:46 -1,3 C 77 % 1014 hPa 0,0 l/m 25,9 km/h (4 Bft) O-NO22.5 65 0 min 0 lux 0,00 min -4,8 C -13,8 C
03.03.2010 23:00 -1,5 C 77 % 1014 hPa 0,0 l/m 22,4 km/h (4 Bft) O-NO22.5 60 0 min 0 lux 0,00 min -5,0 C -12,7 C
03.03.2010 23:15 -1,5 C 78 % 1014 hPa 0,0 l/m 28,3 km/h (4 Bft) O-NO45 60 0 min 0 lux 0,00 min -4,8 C -15,0 C
03.03.2010 23:30 -1,6 C 78 % 1014 hPa 0,0 l/m 26,6 km/h (4 Bft) O-NO22.5 60 0 min 0 lux 0,00 min -4,9 C -14,5 C
03.03.2010 23:46 -1,6 C 78 % 1014 hPa 0,0 l/m 27,7 km/h (4 Bft) O-NO22.5 65 0 min 0 lux 0,00 min -4,9 C -14,9 C
_ Min-Zeit 06:01 14:45 18:30 - 00:01 - - - - - 06:01 22:31
Minimum _ -8,6 C 45 % 1014 hPa - 0,0 km/h (0 Bft) - - - - - -9,4 C -15,0 C
_ Max-Zeit 14:30 07:00 00:01 00:01 16:01 - - 10:16 12:01 00:01 11:45 00:01
Maximum _ 3,5 C 97 % 1022 hPa 0,0 l/m 33,3 km/h
O-NO (5 Bft)
- - 16 min 66,5 klux 0,00 min -1,8 C -5,0 C
Durchschnitt _ -1,8 C 79 % 1018 hPa #0,0 l/m 17,0 km/h (3 Bft) O-NO - #7:00 h 17,2 klux #0 min. -5,2 C -9,4 C